Parma, Arkansas
Current Conditions -  °F | °C
As of 10:15 AM on Wednesday 28 Jan 2015 (Local Time) from KCCA Reporting Station
Haze Haze  
Wind Chill: 46°   Ceiling: Unl
Heat Index: 48°   Visibility: 6mi
Dew Point: 36°   Wind: 5mph
Humidity: 62%   Direction: 160°SSE
Pressure: 30.27"   Gusts: NA
Location:  35.659°N, 92.1866°W
Report Text: KCCA 281615Z AUTO 16004KT 6SM HZ CLR 09/02 A3027 RMK AO2
Loading
Personal Weather Stations






























Interactive Weather Map New forecast layout! Learn more

10-Day Weather Forecast

Advertisements
Track Severe Weather on mobile